Time;durP1;ratioP1;P1;durP2;ratioP2;P2;SDS_P1;SDS_P2;PMS_P1;PMS_P2;Temp;Humidity;BMP_temperature;BMP_pressure;BME280_temperature;BME280_humidity;BME280_pressure;Samples;Min_cycle;Max_cycle;Signal;HPM_P1;HPM_P2
2021/06/26 00:00:51;;;;;;;9.77;5.72;;;16.70;99.90;;;;;;5000692;28;19941;-85
2021/06/26 00:03:18;;;;;;;11.52;6.53;;;16.70;99.90;;;;;;5001198;28;20022;-85
2021/06/26 00:05:44;;;;;;;10.00;6.22;;;16.70;99.90;;;;;;5016300;28;20030;-85
2021/06/26 00:08:10;;;;;;;9.07;5.88;;;16.70;99.90;;;;;;5009721;28;20065;-85
2021/06/26 00:10:35;;;;;;;10.15;6.53;;;16.70;99.90;;;;;;5013415;28;20027;-85
2021/06/26 00:13:01;;;;;;;12.18;7.70;;;16.60;99.90;;;;;;4999623;28;20480;-85
2021/06/26 00:15:27;;;;;;;12.50;7.82;;;16.70;99.90;;;;;;5002149;28;20030;-85
2021/06/26 00:17:53;;;;;;;11.88;7.40;;;16.60;99.90;;;;;;5019278;28;20026;-85
2021/06/26 00:20:18;;;;;;;11.52;7.13;;;16.50;99.90;;;;;;5034055;28;20057;-85
2021/06/26 00:22:44;;;;;;;14.02;8.25;;;16.60;99.90;;;;;;5019268;28;20113;-85
2021/06/26 00:25:10;;;;;;;13.55;7.28;;;16.60;99.90;;;;;;5019002;28;20037;-85
2021/06/26 00:27:36;;;;;;;11.15;6.90;;;16.60;99.90;;;;;;5028423;28;20396;-85
2021/06/26 00:30:02;;;;;;;11.00;6.70;;;16.60;99.90;;;;;;5018777;28;20495;-85
2021/06/26 00:32:28;;;;;;;11.30;7.25;;;16.60;99.90;;;;;;5037564;28;20021;-85
2021/06/26 00:34:55;;;;;;;9.77;6.47;;;16.60;99.90;;;;;;5030119;28;20562;-85
2021/06/26 00:37:21;;;;;;;9.68;5.90;;;16.60;99.90;;;;;;5029796;28;20021;-85
2021/06/26 00:39:46;;;;;;;10.15;6.53;;;16.70;99.90;;;;;;5029435;28;20088;-85
2021/06/26 00:42:12;;;;;;;10.18;5.85;;;16.60;99.90;;;;;;5017909;28;20033;-85
2021/06/26 00:44:38;;;;;;;11.57;7.72;;;16.60;99.90;;;;;;5023034;28;20118;-85
2021/06/26 00:47:11;;;;;;;10.13;6.93;;;16.60;99.90;;;;;;4997598;28;20030;-85
2021/06/26 00:49:36;;;;;;;12.38;7.68;;;16.60;99.90;;;;;;4997213;28;20064;-85
2021/06/26 00:52:03;;;;;;;11.25;7.88;;;16.60;99.90;;;;;;5001619;28;20061;-86
2021/06/26 00:54:28;;;;;;;13.90;8.95;;;16.60;99.90;;;;;;5012635;28;20034;-85
2021/06/26 00:56:55;;;;;;;12.93;8.73;;;16.60;99.90;;;;;;5036765;23;20054;-82
2021/06/26 00:59:22;;;;;;;17.40;10.18;;;16.60;99.90;;;;;;5035392;28;20364;-83
2021/06/26 01:01:47;;;;;;;16.50;9.65;;;16.60;99.90;;;;;;5018185;28;20030;-83
2021/06/26 01:04:13;;;;;;;11.73;7.95;;;16.60;99.90;;;;;;5035792;28;20087;-81
2021/06/26 01:06:38;;;;;;;9.50;6.30;;;16.60;99.90;;;;;;5005452;28;20041;-82
2021/06/26 01:09:04;;;;;;;10.98;6.70;;;16.60;99.90;;;;;;5003103;28;20443;-83
2021/06/26 01:11:30;;;;;;;14.85;7.07;;;16.70;99.90;;;;;;5033417;28;20076;-83
2021/06/26 01:13:57;;;;;;;10.40;6.93;;;16.70;99.90;;;;;;5023454;28;20026;-82
2021/06/26 01:16:24;;;;;;;11.13;6.93;;;16.60;99.90;;;;;;4993392;28;20034;-82
2021/06/26 01:18:50;;;;;;;10.48;7.05;;;16.60;99.90;;;;;;4993474;28;20034;-82
2021/06/26 01:21:16;;;;;;;10.63;7.15;;;16.60;99.90;;;;;;4978035;28;20365;-82
2021/06/26 01:23:46;;;;;;;11.27;6.68;;;16.70;99.90;;;;;;4995767;28;20066;-83
2021/06/26 01:26:12;;;;;;;9.25;6.13;;;16.60;99.90;;;;;;4996185;28;20089;-82
2021/06/26 01:28:39;;;;;;;9.50;6.53;;;16.70;99.90;;;;;;4996207;28;20026;-82
2021/06/26 01:31:05;;;;;;;14.73;6.65;;;16.50;99.90;;;;;;4997686;28;20026;-82
2021/06/26 01:33:31;;;;;;;12.20;6.80;;;16.40;99.90;;;;;;5000777;28;20568;-82
2021/06/26 01:35:57;;;;;;;11.43;7.47;;;16.40;99.90;;;;;;4977958;28;20058;-83
2021/06/26 01:38:22;;;;;;;9.30;6.00;;;16.40;99.90;;;;;;4978219;28;20034;-82
2021/06/26 01:40:48;;;;;;;12.52;6.50;;;16.40;99.90;;;;;;4995023;28;20038;-81
2021/06/26 01:43:14;;;;;;;8.68;6.05;;;16.40;99.90;;;;;;4977046;28;20457;-81
2021/06/26 01:45:40;;;;;;;10.65;6.72;;;16.40;99.90;;;;;;4994610;28;20026;-82
2021/06/26 01:48:06;;;;;;;11.65;7.35;;;16.30;99.90;;;;;;4994353;28;20049;-82
2021/06/26 01:50:31;;;;;;;11.88;7.57;;;16.30;99.90;;;;;;4990952;28;20030;-81
2021/06/26 01:52:59;;;;;;;14.02;9.32;;;16.30;99.90;;;;;;4993813;28;20029;-82
2021/06/26 01:55:24;;;;;;;13.68;8.55;;;16.20;99.90;;;;;;4976668;28;20037;-81
2021/06/26 01:57:51;;;;;;;13.88;9.18;;;16.20;99.90;;;;;;4993542;28;20420;-81
2021/06/26 02:00:18;;;;;;;17.10;9.02;;;16.30;99.90;;;;;;4993112;28;20062;-82
2021/06/26 02:02:44;;;;;;;14.60;9.48;;;16.30;99.90;;;;;;4993930;28;20033;-82
2021/06/26 02:05:11;;;;;;;15.93;9.43;;;16.30;99.90;;;;;;4996436;28;20117;-82
2021/06/26 02:07:37;;;;;;;14.63;8.80;;;16.30;99.90;;;;;;4997941;28;20108;-82
2021/06/26 02:10:04;;;;;;;11.25;7.57;;;16.40;99.90;;;;;;4998323;28;20523;-83
2021/06/26 02:12:30;;;;;;;10.60;6.53;;;16.30;99.90;;;;;;4996280;28;20076;-82
2021/06/26 02:14:55;;;;;;;10.07;6.95;;;16.20;99.90;;;;;;4996662;28;20433;-83
2021/06/26 02:17:21;;;;;;;11.38;7.28;;;16.20;99.90;;;;;;4995831;28;20026;-82
2021/06/26 02:19:48;;;;;;;11.80;7.47;;;16.10;99.90;;;;;;4998536;28;20033;-82
2021/06/26 02:22:14;;;;;;;11.40;7.07;;;16.10;99.90;;;;;;4998924;28;20041;-82
2021/06/26 02:24:39;;;;;;;12.23;8.07;;;16.00;99.90;;;;;;4996261;28;20106;-83
2021/06/26 02:27:05;;;;;;;13.30;7.13;;;16.00;99.90;;;;;;4976965;28;20057;-83
2021/06/26 02:29:31;;;;;;;13.40;8.25;;;16.00;99.90;;;;;;5017095;28;20022;-83
2021/06/26 02:31:57;;;;;;;13.35;7.90;;;16.10;99.90;;;;;;4997099;28;20542;-83
2021/06/26 02:34:22;;;;;;;12.65;8.23;;;16.10;99.90;;;;;;5003274;28;20492;-83
2021/06/26 02:36:48;;;;;;;11.73;7.72;;;16.10;99.90;;;;;;4993566;28;20217;-83
2021/06/26 02:39:14;;;;;;;11.90;8.00;;;16.10;99.90;;;;;;4993983;28;20050;-83
2021/06/26 02:41:40;;;;;;;11.63;7.88;;;16.10;99.90;;;;;;4994188;28;20530;-83
2021/06/26 02:44:05;;;;;;;14.43;8.10;;;16.20;99.90;;;;;;4993950;28;20026;-83
2021/06/26 02:46:31;;;;;;;13.27;8.75;;;16.10;99.90;;;;;;5009202;28;20026;-82
2021/06/26 02:48:57;;;;;;;18.08;9.63;;;16.10;99.90;;;;;;4992279;28;20049;-82
2021/06/26 02:51:23;;;;;;;14.35;8.63;;;16.20;99.90;;;;;;4993633;28;20037;-82
2021/06/26 02:53:48;;;;;;;14.50;7.78;;;16.20;99.90;;;;;;5000989;28;20029;-83
2021/06/26 02:56:14;;;;;;;13.57;8.07;;;16.20;99.90;;;;;;5002553;28;20017;-83
2021/06/26 02:58:39;;;;;;;12.88;7.85;;;16.20;99.90;;;;;;5012833;28;20407;-83
2021/06/26 03:01:05;;;;;;;12.73;7.50;;;16.10;99.90;;;;;;5013111;28;20045;-82
2021/06/26 03:03:31;;;;;;;14.43;9.00;;;16.10;99.90;;;;;;5004952;28;20030;-82
2021/06/26 03:05:56;;;;;;;13.70;8.15;;;16.10;99.90;;;;;;4997387;28;20025;-83
2021/06/26 03:08:22;;;;;;;13.38;8.23;;;16.10;99.90;;;;;;5009067;28;20125;-83
2021/06/26 03:10:48;;;;;;;13.88;8.43;;;16.10;99.90;;;;;;5012364;28;20026;-83
2021/06/26 03:13:15;;;;;;;13.88;8.15;;;16.00;99.90;;;;;;5011985;28;20089;-82
2021/06/26 03:15:41;;;;;;;15.65;8.15;;;16.00;99.90;;;;;;4994577;28;20546;-82
2021/06/26 03:18:06;;;;;;;12.48;8.63;;;15.90;99.90;;;;;;4991540;28;20058;-83
2021/06/26 03:20:32;;;;;;;15.93;8.50;;;15.90;99.90;;;;;;4993441;28;20034;-82
2021/06/26 03:22:57;;;;;;;12.05;7.65;;;15.90;99.90;;;;;;4975776;28;20026;-82
2021/06/26 03:25:23;;;;;;;13.27;7.80;;;15.90;99.90;;;;;;4992864;28;20526;-82
2021/06/26 03:27:49;;;;;;;12.88;7.95;;;15.80;99.90;;;;;;4992757;28;20033;-80
2021/06/26 03:30:15;;;;;;;12.68;8.05;;;15.80;99.90;;;;;;5023395;28;20065;-82
2021/06/26 03:32:40;;;;;;;13.18;8.75;;;15.80;99.90;;;;;;4990809;28;20088;-81
2021/06/26 03:35:07;;;;;;;15.57;8.02;;;15.80;99.90;;;;;;4976995;28;20073;-81
2021/06/26 03:37:32;;;;;;;13.77;8.70;;;15.70;99.90;;;;;;4994742;28;20503;-81
2021/06/26 03:39:58;;;;;;;13.02;7.60;;;15.70;99.90;;;;;;4994149;28;20062;-81
2021/06/26 03:42:24;;;;;;;13.30;8.00;;;15.70;99.90;;;;;;4986964;28;20104;-81
2021/06/26 03:44:49;;;;;;;13.75;8.65;;;15.60;99.90;;;;;;4975647;28;20507;-82
2021/06/26 03:47:15;;;;;;;14.82;8.50;;;15.60;99.90;;;;;;4993595;28;20097;-81
2021/06/26 03:49:40;;;;;;;13.57;8.13;;;15.60;99.90;;;;;;4975208;28;20038;-81
2021/06/26 03:52:07;;;;;;;14.50;8.20;;;15.60;99.90;;;;;;4993286;28;20026;-82
2021/06/26 03:54:33;;;;;;;11.48;7.95;;;15.60;99.90;;;;;;4984879;28;20026;-82
2021/06/26 03:56:59;;;;;;;16.20;8.23;;;15.60;99.90;;;;;;5012819;28;20053;-81
2021/06/26 03:59:24;;;;;;;14.90;7.95;;;15.60;99.90;;;;;;5012087;28;20376;-81
2021/06/26 04:01:50;;;;;;;12.65;7.63;;;15.60;99.90;;;;;;5000184;28;20057;-81
2021/06/26 04:04:16;;;;;;;12.30;8.07;;;15.60;99.90;;;;;;5007964;28;20026;-81
2021/06/26 04:06:42;;;;;;;13.13;8.25;;;15.60;99.90;;;;;;5012305;28;20030;-81
2021/06/26 04:09:08;;;;;;;12.23;7.93;;;15.70;99.90;;;;;;5011910;28;20030;-81
2021/06/26 04:11:33;;;;;;;14.02;9.07;;;15.60;99.90;;;;;;4995499;28;20026;-82
2021/06/26 04:13:59;;;;;;;16.00;9.45;;;15.60;99.90;;;;;;4993558;28;20027;-79
2021/06/26 04:16:25;;;;;;;14.82;9.18;;;15.70;99.90;;;;;;4975845;28;20170;-82
2021/06/26 04:18:50;;;;;;;15.30;9.10;;;15.70;99.90;;;;;;4988949;28;20034;-83
2021/06/26 04:21:16;;;;;;;15.75;9.30;;;15.70;99.90;;;;;;4992841;28;20030;-81
2021/06/26 04:23:41;;;;;;;12.80;8.45;;;15.80;99.90;;;;;;4991416;28;20080;-82
2021/06/26 04:26:07;;;;;;;16.98;9.13;;;15.80;99.90;;;;;;4992626;28;20108;-83
2021/06/26 04:28:32;;;;;;;13.05;8.18;;;15.80;99.90;;;;;;4992127;28;20051;-81
2021/06/26 04:30:58;;;;;;;14.50;8.93;;;15.90;99.90;;;;;;4997614;28;20030;-82
2021/06/26 04:33:27;;;;;;;12.00;7.68;;;16.00;99.90;;;;;;5015190;28;20111;-81
2021/06/26 04:35:53;;;;;;;13.40;8.00;;;16.10;99.90;;;;;;5015720;28;20057;-81
2021/06/26 04:38:22;;;;;;;16.02;9.57;;;16.20;99.90;;;;;;4996387;28;20053;-82
2021/06/26 04:40:49;;;;;;;16.02;9.07;;;16.20;99.90;;;;;;4997204;28;20084;-80
2021/06/26 04:43:15;;;;;;;15.23;9.30;;;16.20;99.90;;;;;;5015379;28;20092;-82
2021/06/26 04:45:44;;;;;;;15.82;8.88;;;16.30;99.90;;;;;;5015049;28;20038;-82
2021/06/26 04:48:10;;;;;;;15.65;9.35;;;16.30;99.90;;;;;;4993570;28;20508;-80
2021/06/26 04:50:36;;;;;;;18.20;9.93;;;16.40;99.90;;;;;;4994863;28;20513;-79
2021/06/26 04:53:01;;;;;;;17.30;9.63;;;16.40;99.90;;;;;;4995427;28;20030;-82
2021/06/26 04:55:27;;;;;;;19.30;10.63;;;16.40;99.90;;;;;;5005866;28;20030;-82
2021/06/26 04:57:53;;;;;;;14.75;9.77;;;16.50;99.90;;;;;;4993339;28;20045;-82
2021/06/26 05:00:19;;;;;;;17.92;10.57;;;16.50;99.90;;;;;;4976893;28;20061;-79
2021/06/26 05:02:44;;;;;;;17.50;10.55;;;16.60;99.90;;;;;;4980423;28;20037;-80
2021/06/26 05:05:10;;;;;;;18.77;11.52;;;16.60;99.90;;;;;;4989243;28;20038;-81
2021/06/26 05:07:36;;;;;;;17.15;10.25;;;16.60;99.90;;;;;;4995047;28;20061;-80
2021/06/26 05:10:02;;;;;;;16.52;9.88;;;16.70;99.90;;;;;;4976689;28;20057;-82
2021/06/26 05:12:28;;;;;;;17.15;10.43;;;16.80;99.90;;;;;;4976836;28;20088;-80
2021/06/26 05:14:54;;;;;;;18.52;11.25;;;16.80;99.90;;;;;;4992720;28;20027;-82
2021/06/26 05:17:19;;;;;;;15.52;9.40;;;17.00;99.90;;;;;;4994799;28;20105;-82
2021/06/26 05:19:45;;;;;;;17.17;9.88;;;17.10;99.90;;;;;;4992061;28;20025;-82
2021/06/26 05:22:11;;;;;;;18.55;10.45;;;17.10;99.90;;;;;;4997669;28;20156;-80
2021/06/26 05:24:37;;;;;;;17.10;10.43;;;17.10;99.90;;;;;;4994859;28;20027;-82
2021/06/26 05:27:03;;;;;;;15.18;9.82;;;17.00;99.90;;;;;;4994867;28;20074;-80
2021/06/26 05:29:28;;;;;;;16.60;11.05;;;16.90;99.90;;;;;;5001926;28;20065;-81
2021/06/26 05:31:54;;;;;;;18.27;10.38;;;17.00;99.90;;;;;;5014447;28;20018;-82
2021/06/26 05:34:19;;;;;;;16.58;9.88;;;17.10;99.90;;;;;;4996626;28;20049;-81
2021/06/26 05:36:45;;;;;;;14.77;9.35;;;17.10;99.90;;;;;;5014574;28;20032;-81
2021/06/26 05:39:11;;;;;;;15.25;8.90;;;16.90;99.90;;;;;;4977314;28;20026;-81
2021/06/26 05:41:36;;;;;;;15.82;9.90;;;16.90;99.90;;;;;;4999773;28;20026;-82
2021/06/26 05:44:02;;;;;;;15.38;9.48;;;16.90;99.90;;;;;;4996660;28;20013;-81
2021/06/26 05:46:28;;;;;;;17.85;9.25;;;17.10;99.90;;;;;;4993130;28;20026;-82
2021/06/26 05:48:53;;;;;;;16.40;9.88;;;17.20;99.90;;;;;;4976427;28;20453;-82
2021/06/26 05:51:20;;;;;;;16.38;10.98;;;17.30;99.90;;;;;;5009065;28;20400;-80
2021/06/26 05:53:46;;;;;;;17.45;10.77;;;17.30;99.90;;;;;;4977945;28;20027;-80
2021/06/26 05:56:12;;;;;;;17.55;10.10;;;17.50;99.90;;;;;;4979324;28;20038;-81
2021/06/26 05:58:37;;;;;;;19.48;11.07;;;17.60;99.90;;;;;;4976392;28;20030;-81
2021/06/26 06:01:06;;;;;;;17.90;10.27;;;17.60;99.90;;;;;;4976845;28;20026;-81
2021/06/26 06:03:34;;;;;;;17.50;11.45;;;17.70;99.90;;;;;;4995951;28;20524;-81
2021/06/26 06:06:00;;;;;;;15.70;9.70;;;17.80;99.90;;;;;;4994745;28;20059;-82
2021/06/26 06:08:25;;;;;;;15.00;10.00;;;17.90;99.90;;;;;;5011690;28;20546;-81
2021/06/26 06:10:51;;;;;;;17.25;10.40;;;17.90;99.90;;;;;;5008343;28;20506;-81
2021/06/26 06:13:20;;;;;;;16.60;10.43;;;17.90;99.90;;;;;;5032232;28;20060;-82
2021/06/26 06:15:47;;;;;;;17.67;11.02;;;18.00;99.90;;;;;;5004568;28;20018;-82
2021/06/26 06:18:15;;;;;;;14.70;10.32;;;18.10;99.90;;;;;;4993187;28;20101;-82
2021/06/26 06:20:41;;;;;;;16.10;9.85;;;18.30;99.90;;;;;;4986970;28;20128;-83
2021/06/26 06:23:07;;;;;;;14.95;9.98;;;18.40;99.90;;;;;;5000729;28;20114;-83
2021/06/26 06:25:33;;;;;;;16.45;10.90;;;18.50;99.90;;;;;;4983203;28;20022;-82
2021/06/26 06:28:01;;;;;;;15.82;10.13;;;18.60;99.90;;;;;;5002084;28;20049;-83
2021/06/26 06:30:27;;;;;;;16.45;9.85;;;18.70;99.90;;;;;;5013487;28;20479;-83
2021/06/26 06:32:53;;;;;;;14.82;9.85;;;18.90;99.90;;;;;;5013508;28;20040;-82
2021/06/26 06:35:18;;;;;;;13.02;8.75;;;19.20;99.90;;;;;;4994343;28;20026;-79
2021/06/26 06:37:44;;;;;;;14.30;10.23;;;19.30;99.90;;;;;;4995045;28;20018;-81
2021/06/26 06:40:13;;;;;;;13.25;9.30;;;19.40;99.90;;;;;;5006326;28;20025;-83
2021/06/26 06:42:41;;;;;;;14.38;9.40;;;19.50;99.90;;;;;;5012135;28;20030;-82
2021/06/26 06:45:07;;;;;;;15.02;9.57;;;19.50;99.90;;;;;;4993943;28;20030;-81
2021/06/26 06:47:33;;;;;;;14.55;9.70;;;19.50;99.90;;;;;;5023451;28;20033;-82
2021/06/26 06:49:58;;;;;;;14.40;9.43;;;19.50;99.90;;;;;;5031723;28;20556;-80
2021/06/26 06:52:25;;;;;;;15.77;9.23;;;19.60;99.90;;;;;;5031731;28;20022;-82
2021/06/26 06:54:51;;;;;;;13.55;9.13;;;19.90;99.90;;;;;;4976678;28;20108;-81
2021/06/26 06:57:22;;;;;;;15.32;9.80;;;20.00;99.90;;;;;;5011741;28;20046;-82
2021/06/26 06:59:48;;;;;;;14.07;8.70;;;20.20;99.90;;;;;;4990719;28;20458;-82
2021/06/26 07:02:14;;;;;;;12.77;8.70;;;20.20;99.90;;;;;;5011315;28;20059;-81
2021/06/26 07:04:40;;;;;;;11.65;8.25;;;20.30;99.90;;;;;;4997527;28;20029;-82
2021/06/26 07:07:06;;;;;;;12.05;8.20;;;20.30;99.90;;;;;;4998009;28;20124;-81
2021/06/26 07:09:31;;;;;;;14.40;8.93;;;20.40;99.90;;;;;;4997770;28;20080;-83
2021/06/26 07:11:58;;;;;;;14.15;9.73;;;20.40;99.90;;;;;;5016167;28;20032;-81
2021/06/26 07:14:24;;;;;;;13.27;9.10;;;20.50;99.90;;;;;;5025558;28;20496;-82
2021/06/26 07:16:49;;;;;;;13.00;8.70;;;20.50;99.90;;;;;;4992895;28;20022;-81
2021/06/26 07:19:15;;;;;;;11.88;8.70;;;20.50;99.90;;;;;;5018965;28;20026;-82
2021/06/26 07:21:42;;;;;;;13.10;8.93;;;20.60;99.90;;;;;;5021018;28;20510;-83
2021/06/26 07:24:08;;;;;;;14.25;8.55;;;20.80;99.90;;;;;;5008924;28;20065;-83
2021/06/26 07:26:34;;;;;;;13.95;9.38;;;20.70;99.90;;;;;;5015817;28;20403;-83
2021/06/26 07:29:00;;;;;;;14.18;9.13;;;20.50;99.90;;;;;;5010608;28;20014;-81
2021/06/26 07:31:26;;;;;;;12.75;8.48;;;20.40;99.90;;;;;;5007292;28;20088;-82
2021/06/26 07:33:51;;;;;;;13.70;9.13;;;20.30;99.90;;;;;;4993906;28;20014;-82
2021/06/26 07:36:17;;;;;;;13.93;9.48;;;20.40;99.90;;;;;;4998670;28;20698;-82
2021/06/26 07:38:43;;;;;;;12.93;8.07;;;20.70;99.90;;;;;;5014336;28;20403;-82
2021/06/26 07:41:08;;;;;;;11.45;7.03;;;20.80;99.90;;;;;;5031938;28;20085;-82
2021/06/26 07:43:35;;;;;;;11.00;7.13;;;20.80;99.90;;;;;;5021038;28;20032;-82
2021/06/26 07:46:03;;;;;;;12.27;8.35;;;21.10;99.90;;;;;;4997505;28;20096;-82
2021/06/26 07:48:29;;;;;;;9.93;6.18;;;21.20;99.90;;;;;;4982400;28;20540;-82
2021/06/26 07:50:56;;;;;;;9.38;6.35;;;21.10;99.90;;;;;;5001924;28;20488;-82
2021/06/26 07:53:21;;;;;;;10.07;6.95;;;21.20;99.90;;;;;;5010154;28;20080;-82
2021/06/26 07:55:53;;;;;;;8.82;5.82;;;21.20;99.90;;;;;;5010485;28;21194;-83
2021/06/26 07:58:20;;;;;;;9.15;6.40;;;21.30;99.90;;;;;;5007820;28;20407;-83
2021/06/26 08:00:47;;;;;;;8.73;6.30;;;21.10;99.90;;;;;;4995230;28;20030;-83
2021/06/26 08:03:14;;;;;;;9.10;6.05;;;21.00;99.90;;;;;;5014366;28;20033;-83
2021/06/26 08:05:39;;;;;;;10.15;6.95;;;21.00;99.90;;;;;;5000774;28;20122;-83
2021/06/26 08:08:05;;;;;;;10.70;6.55;;;20.80;99.90;;;;;;5010762;28;20610;-83
2021/06/26 08:10:31;;;;;;;9.25;6.55;;;20.80;99.90;;;;;;5009582;28;20018;-83
2021/06/26 08:12:56;;;;;;;10.75;6.63;;;20.90;99.90;;;;;;5000182;28;20021;-83
2021/06/26 08:15:23;;;;;;;10.00;5.72;;;21.00;99.90;;;;;;5000859;28;20631;-83
2021/06/26 08:17:49;;;;;;;7.75;5.50;;;21.20;99.90;;;;;;5015450;28;20022;-83
2021/06/26 08:20:15;;;;;;;8.43;5.82;;;21.60;99.90;;;;;;4999992;28;20034;-81
2021/06/26 08:22:41;;;;;;;10.15;6.07;;;21.60;99.90;;;;;;5015263;28;20034;-82
2021/06/26 08:25:08;;;;;;;9.35;6.15;;;21.90;99.90;;;;;;5015084;28;20030;-80
2021/06/26 08:27:33;;;;;;;8.88;6.13;;;22.30;99.90;;;;;;5015567;28;20093;-81
2021/06/26 08:29:59;;;;;;;9.77;6.28;;;22.40;99.90;;;;;;5021000;28;20056;-82
2021/06/26 08:32:25;;;;;;;10.73;7.00;;;22.60;99.90;;;;;;5015056;28;21497;-82
2021/06/26 08:34:50;;;;;;;7.55;5.63;;;22.60;99.90;;;;;;4997553;28;20141;-82
2021/06/26 08:37:16;;;;;;;9.10;5.50;;;22.70;99.90;;;;;;5015352;28;20018;-82
2021/06/26 08:39:42;;;;;;;7.78;5.57;;;22.90;99.90;;;;;;5013862;28;20034;-82
2021/06/26 08:42:08;;;;;;;9.10;6.00;;;22.90;99.90;;;;;;4998442;28;20026;-82
2021/06/26 08:44:34;;;;;;;9.18;6.07;;;23.00;99.90;;;;;;4998781;28;20549;-82
2021/06/26 08:47:00;;;;;;;8.88;5.55;;;23.30;99.90;;;;;;5028705;28;20064;-83
2021/06/26 08:49:27;;;;;;;8.32;5.57;;;23.50;99.90;;;;;;5011542;28;20046;-82
2021/06/26 08:51:54;;;;;;;7.85;5.70;;;23.40;99.90;;;;;;5010217;28;20624;-82
2021/06/26 08:54:21;;;;;;;7.93;5.60;;;23.70;99.90;;;;;;4998191;28;20028;-82
2021/06/26 08:56:48;;;;;;;7.57;5.32;;;23.50;99.90;;;;;;4997110;28;20410;-81
2021/06/26 08:59:16;;;;;;;6.40;4.93;;;23.50;99.90;;;;;;5013114;28;20056;-82
2021/06/26 09:01:43;;;;;;;6.78;4.97;;;23.50;99.90;;;;;;4995787;28;20045;-81
2021/06/26 09:04:14;;;;;;;7.78;4.85;;;23.50;99.90;;;;;;5013920;28;20022;-81
2021/06/26 09:06:49;;;;;;;;;;;23.80;99.90;;;;;;5011764;28;20038;-82
2021/06/26 09:09:15;;;;;;;7.60;5.25;;;24.10;99.90;;;;;;5008966;28;19916;-82
2021/06/26 09:11:41;;;;;;;7.20;4.70;;;24.50;99.90;;;;;;5024345;28;20029;-83
2021/06/26 09:14:18;;;;;;;7.07;4.65;;;24.70;99.90;;;;;;5019147;28;20021;-81
2021/06/26 09:16:54;;;;;;;7.57;5.15;;;24.50;99.90;;;;;;5004538;28;20022;-82
2021/06/26 09:19:20;;;;;;;6.85;4.95;;;24.20;99.90;;;;;;4993930;28;20056;-81
2021/06/26 09:22:04;;;;;;;6.30;4.57;;;24.00;99.90;;;;;;5015862;28;20472;-82
2021/06/26 09:24:42;;;;;;;6.28;4.28;;;23.80;99.90;;;;;;5024129;28;20022;-81
2021/06/26 09:27:13;;;;;;;6.00;4.57;;;23.90;99.90;;;;;;4999148;28;20034;-82
2021/06/26 09:29:55;;;;;;;7.28;4.90;;;24.10;99.90;;;;;;4999743;28;20036;-81
2021/06/26 09:32:26;;;;;;;6.60;4.68;;;24.10;99.90;;;;;;4996558;28;20030;-79
2021/06/26 09:34:53;;;;;;;6.93;4.68;;;24.40;99.90;;;;;;4994720;28;20026;-80
2021/06/26 09:37:22;;;;;;;13.57;9.73;;;24.50;99.90;;;;;;4995541;28;20026;-78
2021/06/26 09:39:52;;;;;;;7.53;4.90;;;24.50;99.90;;;;;;4994730;28;20026;-80
2021/06/26 09:42:26;;;;;;;6.00;3.90;;;24.30;99.90;;;;;;4998386;28;20032;-81
2021/06/26 09:44:57;;;;;;;7.20;4.18;;;23.90;99.90;;;;;;4996088;28;20053;-82
2021/06/26 09:47:40;;;;;;;7.22;4.47;;;24.10;99.90;;;;;;4997586;28;20034;-81
2021/06/26 09:50:07;;;;;;;7.10;4.70;;;24.30;99.90;;;;;;5011882;28;20045;-79
2021/06/26 09:52:48;;;;;;;6.30;4.40;;;24.30;98.90;;;;;;4996641;28;20176;-80
2021/06/26 09:55:29;;;;;;;6.05;4.43;;;24.40;99.00;;;;;;5004398;28;20017;-80
2021/06/26 09:57:57;;;;;;;6.03;4.50;;;24.40;98.60;;;;;;5010338;28;20068;-79
2021/06/26 10:00:25;;;;;;;6.93;4.70;;;24.60;99.10;;;;;;5025540;28;20692;-80
2021/06/26 10:02:52;;;;;;;6.30;4.07;;;24.50;98.00;;;;;;5004401;28;20026;-80
2021/06/26 10:05:18;;;;;;;5.88;4.00;;;24.60;97.50;;;;;;5012987;28;20041;-79
2021/06/26 10:07:45;;;;;;;7.00;4.78;;;24.70;98.50;;;;;;4995242;28;20113;-80
2021/06/26 10:10:15;;;;;;;5.82;4.03;;;24.70;97.90;;;;;;5012254;28;20045;-79
2021/06/26 10:12:42;;;;;;;5.80;4.03;;;24.70;97.40;;;;;;4997364;28;20073;-80
2021/06/26 10:15:10;;;;;;;5.05;3.83;;;25.20;97.00;;;;;;5012681;28;20504;-79
2021/06/26 10:17:36;;;;;;;5.82;3.75;;;25.30;98.00;;;;;;5015753;28;20212;-80
2021/06/26 10:20:04;;;;;;;5.85;4.15;;;25.50;97.60;;;;;;4995652;28;20029;-76
2021/06/26 10:22:30;;;;;;;6.10;4.07;;;25.20;95.50;;;;;;5011479;28;20087;-79
2021/06/26 10:24:57;;;;;;;5.95;3.90;;;25.30;95.50;;;;;;4994934;28;20025;-79
2021/06/26 10:27:23;;;;;;;5.90;4.03;;;25.30;96.60;;;;;;5012028;28;20053;-78
2021/06/26 10:29:50;;;;;;;6.63;4.40;;;25.50;96.30;;;;;;4991222;28;20123;-79
2021/06/26 10:32:18;;;;;;;6.13;3.85;;;25.50;95.50;;;;;;4987987;28;20076;-79
2021/06/26 10:34:48;;;;;;;5.35;3.83;;;25.50;96.50;;;;;;5014423;28;20476;-79
2021/06/26 10:37:20;;;;;;;6.90;3.90;;;25.30;95.90;;;;;;5003387;28;20088;-80
2021/06/26 10:39:48;;;;;;;6.05;3.65;;;24.70;96.30;;;;;;5027727;28;20031;-82
2021/06/26 10:42:18;;;;;;;6.13;4.00;;;24.50;96.70;;;;;;5009328;28;20030;-81
2021/06/26 10:44:46;;;;;;;5.90;4.50;;;24.30;97.10;;;;;;5003022;28;20034;-83
2021/06/26 10:47:12;;;;;;;5.72;3.95;;;24.20;96.70;;;;;;5029683;28;20088;-81
2021/06/26 10:49:38;;;;;;;6.03;4.00;;;24.30;96.40;;;;;;5024062;28;20029;-84
2021/06/26 10:52:11;;;;;;;5.72;3.85;;;24.70;97.60;;;;;;5032449;28;20060;-82
2021/06/26 10:54:48;;;;;;;7.15;3.95;;;24.90;96.60;;;;;;5017990;28;20242;-83
2021/06/26 10:57:14;;;;;;;4.90;3.60;;;25.50;96.70;;;;;;5017483;28;20060;-83
2021/06/26 10:59:39;;;;;;;6.40;3.72;;;26.40;96.30;;;;;;5005265;28;20029;-83
2021/06/26 11:02:05;;;;;;;5.10;3.47;;;27.10;94.90;;;;;;4998291;28;20136;-84
2021/06/26 11:04:32;;;;;;;4.68;3.30;;;27.00;93.80;;;;;;5015771;28;20024;-85
2021/06/26 11:07:09;;;;;;;5.22;3.30;;;26.90;94.30;;;;;;4995264;28;20037;-84
2021/06/26 11:09:48;;;;;;;5.30;3.83;;;26.30;92.10;;;;;;5014115;28;20101;-85
2021/06/26 11:12:19;;;;;;;4.60;3.30;;;26.10;92.90;;;;;;5018695;28;20021;-84
2021/06/26 11:14:52;;;;;;;6.63;3.47;;;26.40;94.30;;;;;;5014771;28;20096;-84
2021/06/26 11:17:22;;;;;;;5.57;3.20;;;26.60;92.40;;;;;;4997570;28;20042;-83
2021/06/26 11:19:48;;;;;;;5.63;3.17;;;26.40;93.60;;;;;;4996164;28;20030;-84
2021/06/26 11:22:14;;;;;;;5.18;3.60;;;26.70;92.20;;;;;;5005890;28;20026;-83
2021/06/26 11:24:42;;;;;;;4.68;3.40;;;26.90;93.40;;;;;;5018293;28;20075;-84
2021/06/26 11:27:14;;;;;;;4.82;2.92;;;27.40;92.90;;;;;;5019806;28;20094;-83
2021/06/26 11:29:42;;;;;;;4.90;3.33;;;27.30;91.80;;;;;;5014342;28;20022;-84
2021/06/26 11:32:28;;;;;;;7.32;3.38;;;27.20;91.00;;;;;;5007078;28;20112;-84
2021/06/26 11:35:05;;;;;;;4.75;3.35;;;26.90;91.10;;;;;;4992168;28;20037;-84
2021/06/26 11:37:43;;;;;;;5.55;3.30;;;26.70;91.00;;;;;;5000448;28;20040;-83
2021/06/26 11:40:14;;;;;;;5.15;3.33;;;26.20;92.00;;;;;;5018340;28;20057;-83
2021/06/26 11:42:55;;;;;;;4.68;3.40;;;25.80;92.40;;;;;;5019647;28;20026;-84
2021/06/26 11:45:39;;;;;;;5.30;3.85;;;25.60;93.40;;;;;;5020957;28;20021;-83
2021/06/26 11:48:13;;;;;;;5.25;3.20;;;25.40;93.30;;;;;;5019948;28;20101;-83
2021/06/26 11:50:46;;;;;;;4.80;3.10;;;25.40;93.50;;;;;;5000899;28;20124;-83
2021/06/26 11:53:13;;;;;;;4.80;3.40;;;25.70;92.60;;;;;;5020698;28;20073;-84
2021/06/26 11:56:00;;;;;;;5.03;3.20;;;26.40;92.00;;;;;;5018823;28;20021;-83
2021/06/26 11:58:43;;;;;;;5.38;3.20;;;27.20;90.80;;;;;;5018870;28;20034;-82
2021/06/26 12:01:13;;;;;;;4.85;3.35;;;27.80;90.40;;;;;;4993389;28;20194;-83
2021/06/26 12:03:39;;;;;;;4.53;3.30;;;28.10;90.30;;;;;;5019288;28;20028;-84
2021/06/26 12:06:07;;;;;;;7.28;3.53;;;27.90;89.90;;;;;;5012781;28;20026;-83
2021/06/26 12:08:54;;;;;;;5.07;3.10;;;28.20;88.30;;;;;;5001311;28;20666;-84
2021/06/26 12:11:23;;;;;;;4.70;2.95;;;27.90;86.40;;;;;;5003869;28;20053;-84
2021/06/26 12:13:51;;;;;;;4.95;3.00;;;27.70;89.20;;;;;;5020809;28;20120;-84
2021/06/26 12:16:28;;;;;;;4.05;2.75;;;27.80;88.10;;;;;;5017309;28;20030;-83
2021/06/26 12:18:57;;;;;;;4.30;2.72;;;27.80;88.40;;;;;;5017888;28;20484;-83
2021/06/26 12:21:39;;;;;;;4.40;2.85;;;27.90;86.40;;;;;;5004476;28;20535;-83
2021/06/26 12:24:05;;;;;;;4.47;2.90;;;27.70;88.10;;;;;;5000601;28;20060;-83
2021/06/26 12:26:31;;;;;;;4.60;3.00;;;28.10;87.30;;;;;;5017338;28;20018;-83
2021/06/26 12:28:57;;;;;;;3.85;2.83;;;28.30;85.30;;;;;;5026738;28;20044;-83
2021/06/26 12:31:25;;;;;;;4.55;2.97;;;28.50;86.10;;;;;;5005988;28;20037;-84
2021/06/26 12:34:02;;;;;;;5.60;3.33;;;28.80;83.50;;;;;;5021422;28;20013;-83
2021/06/26 12:36:27;;;;;;;4.95;3.22;;;28.90;84.50;;;;;;5012302;28;20044;-83
2021/06/26 12:38:54;;;;;;;4.97;2.75;;;29.10;83.70;;;;;;5012099;28;20041;-83
2021/06/26 12:41:26;;;;;;;3.85;2.83;;;29.40;84.30;;;;;;5002000;28;20030;-83